Terminal Aerodrome Forecast
Issued by NWS

Home | Current Version | Previous Version | Text Only | Print | Product List | Glossary On
Versions: 1 2 3 4 5 6 7 8 9 10 11 12
000
FTUS42 KTAE 051120
TAFVLD
TAF
KVLD 051120Z 0512/0612 06008KT P6SM SKC
     FM051600 08011KT P6SM SCT060
     FM060100 08005KT P6SM SCT250=

USA.gov is the U.S. government's official web portal to all federal, state and local government web resources and services.